createdAt,value
2018-10-07T00:00:26.592Z,13.49
2018-10-07T00:02:55.603Z,13.39
2018-10-07T00:05:24.820Z,13.41
2018-10-07T00:07:53.970Z,13.16
2018-10-07T00:10:23.042Z,13.08
2018-10-07T00:12:51.716Z,13.04
2018-10-07T00:15:20.685Z,12.90
2018-10-07T00:17:49.378Z,12.77
2018-10-07T00:20:18.234Z,12.69
2018-10-07T00:22:47.085Z,12.85
2018-10-07T00:25:15.869Z,12.89
2018-10-07T00:27:44.826Z,13.00
2018-10-07T00:30:13.624Z,12.89
2018-10-07T00:32:42.452Z,12.96
2018-10-07T00:35:11.156Z,13.01
2018-10-07T00:37:40.026Z,13.02
2018-10-07T00:40:08.852Z,12.98
2018-10-07T00:42:37.569Z,12.99
2018-10-07T00:45:06.405Z,13.07
2018-10-07T00:47:35.255Z,13.11
2018-10-07T00:50:04.092Z,13.08
2018-10-07T00:52:33.108Z,13.08
2018-10-07T00:55:01.931Z,13.13
2018-10-07T00:57:30.983Z,13.14
2018-10-07T00:59:59.803Z,13.20
2018-10-07T01:02:28.595Z,13.23
2018-10-07T01:04:57.447Z,13.24
2018-10-07T01:07:27.309Z,13.22
2018-10-07T01:09:56.125Z,13.25
2018-10-07T01:12:25.002Z,13.25
2018-10-07T01:14:53.845Z,13.23
2018-10-07T01:17:22.737Z,13.17
2018-10-07T01:19:51.505Z,13.15
2018-10-07T01:22:20.613Z,13.16
2018-10-07T01:24:49.548Z,13.20
2018-10-07T01:27:18.462Z,13.20
2018-10-07T01:29:47.295Z,13.20
2018-10-07T01:32:16.021Z,13.22
2018-10-07T01:34:44.785Z,13.29
2018-10-07T01:37:13.562Z,13.13
2018-10-07T01:39:42.425Z,13.02
2018-10-07T01:42:11.156Z,12.75
2018-10-07T01:44:39.986Z,12.72
2018-10-07T01:47:08.826Z,12.58
2018-10-07T01:49:37.672Z,12.67
2018-10-07T01:52:06.434Z,12.70
2018-10-07T01:54:35.357Z,12.71
2018-10-07T01:57:04.081Z,12.75
2018-10-07T01:59:33.135Z,12.77
2018-10-07T02:02:01.817Z,12.75
2018-10-07T02:04:30.735Z,12.74
2018-10-07T02:06:59.699Z,12.76
2018-10-07T02:09:28.549Z,12.75
2018-10-07T02:11:57.421Z,12.77
2018-10-07T02:14:26.243Z,12.77
2018-10-07T02:16:55.276Z,12.83
2018-10-07T02:19:24.206Z,12.84
2018-10-07T02:21:52.930Z,12.84
2018-10-07T02:24:21.772Z,12.86
2018-10-07T02:26:50.471Z,12.86
2018-10-07T02:29:19.223Z,12.85
2018-10-07T02:31:48.041Z,12.88
2018-10-07T02:34:16.733Z,12.94
2018-10-07T02:36:45.537Z,12.95
2018-10-07T02:39:14.381Z,13.00
2018-10-07T02:41:43.058Z,13.00
2018-10-07T02:44:11.943Z,12.99
2018-10-07T02:46:40.604Z,12.95
2018-10-07T02:49:09.467Z,13.02
2018-10-07T02:51:38.233Z,12.95
2018-10-07T02:54:07.014Z,13.00
2018-10-07T02:56:35.802Z,13.02
2018-10-07T02:59:04.602Z,13.08
2018-10-07T03:01:33.515Z,12.94
2018-10-07T03:04:02.378Z,12.74
2018-10-07T03:06:31.154Z,12.79
2018-10-07T03:08:59.987Z,12.90
2018-10-07T03:11:28.697Z,12.97
2018-10-07T03:13:57.521Z,13.00
2018-10-07T03:16:26.345Z,13.04
2018-10-07T03:18:55.045Z,13.02
2018-10-07T03:21:23.810Z,12.83
2018-10-07T03:23:53.066Z,12.63
2018-10-07T03:26:21.786Z,12.45
2018-10-07T03:28:50.640Z,12.49
2018-10-07T03:31:19.451Z,12.53
2018-10-07T03:33:48.399Z,12.30
2018-10-07T03:36:17.269Z,12.22
2018-10-07T03:38:46.039Z,12.26
2018-10-07T03:41:14.869Z,12.03
2018-10-07T03:43:43.681Z,12.07
2018-10-07T03:46:12.461Z,12.17
2018-10-07T03:48:41.281Z,12.30
2018-10-07T03:51:09.952Z,12.38
2018-10-07T03:53:38.786Z,12.50
2018-10-07T03:56:07.718Z,12.60
2018-10-07T03:58:36.550Z,12.56
2018-10-07T04:01:05.290Z,12.70
2018-10-07T04:03:33.997Z,12.76
2018-10-07T04:06:02.777Z,12.82
2018-10-07T04:08:31.751Z,12.88
2018-10-07T04:11:00.419Z,12.90
2018-10-07T04:13:29.115Z,12.93
2018-10-07T04:15:57.825Z,13.03
2018-10-07T04:18:26.647Z,13.04
2018-10-07T04:20:55.541Z,13.07
2018-10-07T04:23:24.322Z,13.09
2018-10-07T04:25:53.073Z,13.12
2018-10-07T04:28:21.993Z,13.13
2018-10-07T04:30:50.850Z,13.16
2018-10-07T04:33:19.644Z,13.13
2018-10-07T04:35:48.353Z,13.09
2018-10-07T04:38:17.141Z,13.08
2018-10-07T04:40:46.198Z,13.09
2018-10-07T04:43:15.106Z,13.14
2018-10-07T04:45:43.937Z,13.00
2018-10-07T04:48:12.736Z,13.05
2018-10-07T04:50:41.673Z,13.11
2018-10-07T04:53:10.488Z,13.13
2018-10-07T04:55:39.201Z,13.17
2018-10-07T04:58:07.989Z,13.13
2018-10-07T05:00:36.717Z,13.07
2018-10-07T05:03:05.513Z,13.01
2018-10-07T05:05:34.151Z,13.13
2018-10-07T05:08:02.813Z,13.12
2018-10-07T05:10:49.813Z,13.22
2018-10-07T05:13:21.367Z,13.21
2018-10-07T05:15:52.683Z,13.21
2018-10-07T05:18:21.542Z,13.27
2018-10-07T05:20:50.532Z,13.26
2018-10-07T05:23:19.295Z,13.30
2018-10-07T05:25:48.203Z,13.32
2018-10-07T05:28:17.412Z,13.34
2018-10-07T05:30:46.350Z,13.38
2018-10-07T05:33:15.008Z,13.34
2018-10-07T05:35:43.906Z,13.37
2018-10-07T05:38:12.715Z,13.32
2018-10-07T05:40:41.422Z,13.30
2018-10-07T05:43:10.113Z,13.39
2018-10-07T05:45:38.837Z,13.45
2018-10-07T05:48:07.549Z,13.49
2018-10-07T05:50:37.769Z,13.48
2018-10-07T05:53:06.821Z,13.47
2018-10-07T05:55:35.759Z,13.52
2018-10-07T05:58:06.004Z,13.61
2018-10-07T06:00:36.603Z,13.59
2018-10-07T06:05:17.576Z,13.59
2018-10-07T06:07:46.225Z,13.55
2018-10-07T06:10:16.982Z,13.62
2018-10-07T06:12:45.781Z,13.69
2018-10-07T06:15:32.771Z,13.77
2018-10-07T06:18:01.480Z,13.96
2018-10-07T06:20:31.112Z,13.96
2018-10-07T06:22:59.964Z,14.08
2018-10-07T06:25:28.789Z,14.19
2018-10-07T06:27:58.232Z,14.27
2018-10-07T06:30:27.032Z,14.35
2018-10-07T06:32:55.853Z,14.44
2018-10-07T06:35:25.437Z,14.57
2018-10-07T06:37:54.801Z,14.60
2018-10-07T06:40:23.672Z,14.64
2018-10-07T06:42:52.566Z,14.56
2018-10-07T06:45:21.311Z,14.63
2018-10-07T06:47:50.097Z,14.77
2018-10-07T06:50:18.867Z,14.91
2018-10-07T06:52:47.568Z,15.00
2018-10-07T06:55:16.239Z,15.09
2018-10-07T06:57:44.977Z,15.21
2018-10-07T07:00:13.777Z,15.29
2018-10-07T07:02:42.545Z,15.40
2018-10-07T07:05:11.341Z,15.48
2018-10-07T07:07:40.170Z,15.63
2018-10-07T07:10:08.957Z,15.65
2018-10-07T07:12:37.813Z,15.81
2018-10-07T07:15:06.603Z,15.73
2018-10-07T07:17:35.487Z,15.51
2018-10-07T07:20:04.297Z,15.44
2018-10-07T07:22:33.085Z,15.72
2018-10-07T07:25:01.743Z,15.92
2018-10-07T07:27:30.576Z,15.92
2018-10-07T07:29:59.266Z,15.78
2018-10-07T07:32:28.067Z,15.58
2018-10-07T07:34:56.921Z,15.48
2018-10-07T07:37:25.669Z,15.33
2018-10-07T07:39:54.440Z,15.17
2018-10-07T07:42:23.406Z,15.31
2018-10-07T07:44:52.140Z,15.52
2018-10-07T07:47:21.120Z,15.67
2018-10-07T07:49:49.913Z,15.66
2018-10-07T07:52:19.485Z,15.74
2018-10-07T07:54:48.823Z,15.58
2018-10-07T07:57:17.440Z,15.58
2018-10-07T07:59:46.219Z,15.67
2018-10-07T08:02:15.155Z,15.78
2018-10-07T08:04:43.699Z,15.76
2018-10-07T08:07:12.405Z,15.78
2018-10-07T08:09:41.188Z,15.60
2018-10-07T08:12:09.992Z,15.43
2018-10-07T08:14:38.776Z,15.25
2018-10-07T08:17:07.460Z,15.28
2018-10-07T08:19:36.145Z,15.31
2018-10-07T08:22:04.864Z,15.23
2018-10-07T08:24:33.687Z,15.27
2018-10-07T08:27:02.489Z,15.57
2018-10-07T08:29:31.257Z,15.62
2018-10-07T08:32:00.114Z,15.60
2018-10-07T08:34:28.713Z,15.68
2018-10-07T08:36:57.481Z,15.62
2018-10-07T08:39:26.298Z,15.62
2018-10-07T08:41:55.074Z,15.59
2018-10-07T08:44:23.867Z,15.65
2018-10-07T08:46:52.534Z,15.55
2018-10-07T08:49:21.201Z,15.66
2018-10-07T08:51:50.039Z,15.70
2018-10-07T08:54:18.796Z,15.70
2018-10-07T08:56:47.586Z,15.59
2018-10-07T08:59:16.339Z,15.62
2018-10-07T09:01:45.029Z,15.55
2018-10-07T09:04:13.792Z,15.51
2018-10-07T09:06:42.466Z,15.60
2018-10-07T09:09:11.965Z,15.79
2018-10-07T09:11:41.225Z,15.81
2018-10-07T09:14:10.132Z,15.95
2018-10-07T09:16:38.963Z,15.96
2018-10-07T09:19:07.675Z,16.01
2018-10-07T09:21:36.340Z,16.05
2018-10-07T09:24:05.268Z,15.93
2018-10-07T09:26:34.010Z,15.75
2018-10-07T09:29:02.901Z,15.75
2018-10-07T09:31:31.708Z,15.91
2018-10-07T09:34:00.299Z,15.75
2018-10-07T09:36:28.978Z,15.83
2018-10-07T09:38:57.707Z,15.84
2018-10-07T09:41:26.394Z,16.00
2018-10-07T09:43:55.217Z,15.92
2018-10-07T09:46:23.911Z,15.93
2018-10-07T09:48:52.808Z,16.11
2018-10-07T09:51:21.616Z,16.23
2018-10-07T09:53:50.481Z,16.31
2018-10-07T09:56:19.421Z,16.47
2018-10-07T09:58:48.144Z,16.58
2018-10-07T10:01:16.882Z,16.56
2018-10-07T10:03:45.640Z,16.38
2018-10-07T10:06:16.235Z,16.40
2018-10-07T10:08:45.124Z,16.38
2018-10-07T10:11:13.900Z,16.30
2018-10-07T10:13:42.564Z,16.39
2018-10-07T10:16:11.176Z,16.51
2018-10-07T10:18:47.544Z,16.80
2018-10-07T10:21:23.645Z,16.87
2018-10-07T10:24:02.716Z,16.89
2018-10-07T10:29:03.111Z,17.22
2018-10-07T10:31:40.565Z,17.66
2018-10-07T10:34:23.679Z,17.84
2018-10-07T10:37:01.550Z,18.20
2018-10-07T10:39:47.504Z,18.61
2018-10-07T10:42:24.517Z,18.80
2018-10-07T10:45:02.213Z,18.81
2018-10-07T10:47:39.992Z,19.04
2018-10-07T10:52:21.306Z,18.98
2018-10-07T10:56:00.045Z,19.64
2018-10-07T10:59:06.268Z,19.98
2018-10-07T11:03:58.069Z,19.64
2018-10-07T11:06:38.338Z,19.93
2018-10-07T11:10:31.217Z,20.14
2018-10-07T11:13:06.578Z,20.35
2018-10-07T11:15:45.487Z,20.90
2018-10-07T11:18:20.228Z,21.31
2018-10-07T11:23:35.805Z,21.43
2018-10-07T11:26:10.049Z,22.27
2018-10-07T11:28:47.582Z,23.56
2018-10-07T11:32:20.981Z,23.92
2018-10-07T11:35:00.600Z,23.41
2018-10-07T11:37:43.590Z,22.70
2018-10-07T11:40:28.174Z,21.37
2018-10-07T11:45:13.557Z,20.60
2018-10-07T11:49:57.054Z,20.20
2018-10-07T11:53:02.250Z,19.63
2018-10-07T11:55:30.945Z,19.74
2018-10-07T11:57:59.685Z,19.70
2018-10-07T12:00:28.462Z,19.45
2018-10-07T12:02:57.187Z,19.06
2018-10-07T12:05:25.742Z,19.25
2018-10-07T12:07:54.395Z,19.35
2018-10-07T12:10:23.147Z,19.07
2018-10-07T12:12:51.828Z,19.18
2018-10-07T12:15:20.697Z,19.05
2018-10-07T12:17:49.504Z,19.30
2018-10-07T12:20:18.336Z,19.27
2018-10-07T12:22:47.179Z,19.18
2018-10-07T12:25:16.005Z,19.46
2018-10-07T12:27:44.841Z,19.78
2018-10-07T12:30:13.537Z,20.15
2018-10-07T12:32:42.169Z,20.43
2018-10-07T12:35:10.853Z,20.27
2018-10-07T12:37:39.683Z,20.28
2018-10-07T12:40:08.364Z,20.19
2018-10-07T12:42:37.205Z,20.82
2018-10-07T12:45:05.795Z,21.16
2018-10-07T12:47:34.405Z,21.13
2018-10-07T12:50:03.097Z,20.87
2018-10-07T12:52:31.977Z,21.08
2018-10-07T12:55:00.652Z,21.48
2018-10-07T12:57:29.581Z,21.37
2018-10-07T12:59:58.275Z,20.91
2018-10-07T13:02:26.977Z,21.18
2018-10-07T13:04:55.746Z,21.02
2018-10-07T13:07:24.530Z,20.29
2018-10-07T13:09:53.357Z,20.11
2018-10-07T13:12:21.933Z,20.27
2018-10-07T13:14:50.837Z,20.11
2018-10-07T13:17:19.522Z,20.07
2018-10-07T13:21:12.574Z,19.73
2018-10-07T13:23:41.260Z,20.20
2018-10-07T13:26:09.954Z,20.47
2018-10-07T13:28:39.254Z,20.59
2018-10-07T13:31:08.317Z,21.01
2018-10-07T13:33:37.310Z,20.89
2018-10-07T13:36:06.077Z,20.52
2018-10-07T13:38:34.869Z,20.56
2018-10-07T13:41:03.621Z,20.41
2018-10-07T13:43:32.400Z,20.33
2018-10-07T13:46:01.100Z,19.61
2018-10-07T13:48:29.761Z,19.38
2018-10-07T13:50:58.576Z,19.22
2018-10-07T13:53:27.326Z,19.13
2018-10-07T13:55:55.858Z,18.87
2018-10-07T13:58:24.648Z,18.86
2018-10-07T14:00:53.452Z,18.79
2018-10-07T14:03:22.211Z,18.80
2018-10-07T14:05:50.904Z,18.52
2018-10-07T14:08:19.697Z,18.45
2018-10-07T14:10:48.519Z,18.40
2018-10-07T14:13:17.325Z,18.54
2018-10-07T14:15:46.117Z,18.42
2018-10-07T14:18:14.797Z,18.46
2018-10-07T14:20:43.503Z,18.46
2018-10-07T14:23:12.275Z,18.38
2018-10-07T14:25:40.989Z,18.30
2018-10-07T14:28:10.805Z,18.30
2018-10-07T14:30:39.388Z,18.35
2018-10-07T14:33:08.197Z,18.39
2018-10-07T14:35:37.029Z,18.41
2018-10-07T14:38:05.903Z,18.41
2018-10-07T14:40:34.713Z,18.59
2018-10-07T14:43:03.549Z,18.56
2018-10-07T14:45:32.430Z,18.73
2018-10-07T14:48:01.251Z,18.92
2018-10-07T14:50:30.098Z,19.11
2018-10-07T14:52:59.105Z,19.17
2018-10-07T14:55:27.933Z,19.10
2018-10-07T14:57:56.736Z,19.24
2018-10-07T15:00:25.533Z,19.37
2018-10-07T15:02:54.160Z,19.41
2018-10-07T15:05:22.970Z,19.62
2018-10-07T15:07:51.781Z,19.61
2018-10-07T15:11:44.890Z,19.51
2018-10-07T15:14:13.453Z,19.17
2018-10-07T15:16:42.340Z,19.07
2018-10-07T15:19:11.188Z,18.80
2018-10-07T15:21:40.108Z,18.77
2018-10-07T15:24:10.301Z,18.91
2018-10-07T15:26:39.067Z,18.72
2018-10-07T15:29:07.782Z,18.80
2018-10-07T15:31:36.496Z,18.85
2018-10-07T15:34:05.166Z,18.83
2018-10-07T15:36:33.889Z,18.57
2018-10-07T15:39:02.660Z,18.44
2018-10-07T15:41:31.497Z,18.31
2018-10-07T15:44:00.189Z,18.31
2018-10-07T15:46:29.290Z,18.17
2018-10-07T15:48:58.093Z,18.02
2018-10-07T15:51:27.097Z,18.12
2018-10-07T15:53:55.913Z,18.40
2018-10-07T15:56:24.806Z,18.53
2018-10-07T15:58:53.784Z,18.28
2018-10-07T16:01:22.626Z,18.16
2018-10-07T16:03:51.565Z,17.99
2018-10-07T16:06:20.343Z,17.80
2018-10-07T16:08:49.274Z,17.73
2018-10-07T16:11:17.993Z,17.67
2018-10-07T16:13:46.832Z,17.55
2018-10-07T16:16:15.681Z,17.39
2018-10-07T16:18:44.585Z,17.19
2018-10-07T16:21:13.447Z,16.99
2018-10-07T16:23:42.344Z,16.89
2018-10-07T16:26:11.164Z,16.84
2018-10-07T16:28:40.117Z,16.95
2018-10-07T16:31:09.797Z,17.00
2018-10-07T16:33:38.668Z,16.93
2018-10-07T16:36:07.465Z,16.89
2018-10-07T16:38:36.366Z,16.85
2018-10-07T16:41:05.126Z,16.80
2018-10-07T16:43:33.976Z,16.82
2018-10-07T16:46:03.140Z,16.82
2018-10-07T16:48:31.912Z,16.84
2018-10-07T16:51:00.590Z,16.81
2018-10-07T16:53:29.340Z,16.88
2018-10-07T16:55:57.921Z,16.93
2018-10-07T16:58:26.806Z,16.91
2018-10-07T17:00:55.514Z,16.91
2018-10-07T17:03:24.390Z,16.93
2018-10-07T17:05:54.327Z,16.97
2018-10-07T17:08:23.183Z,16.92
2018-10-07T17:10:52.039Z,16.88
2018-10-07T17:13:20.832Z,16.88
2018-10-07T17:15:49.392Z,16.85
2018-10-07T17:18:18.228Z,16.85
2018-10-07T17:20:47.023Z,16.83
2018-10-07T17:23:15.600Z,16.77
2018-10-07T17:25:44.287Z,16.74
2018-10-07T17:28:12.882Z,16.77
2018-10-07T17:30:41.676Z,16.65
2018-10-07T17:33:10.488Z,16.67
2018-10-07T17:35:39.320Z,16.63
2018-10-07T17:38:08.291Z,16.51
2018-10-07T17:40:37.029Z,16.45
2018-10-07T17:43:05.820Z,16.46
2018-10-07T17:45:34.498Z,16.45
2018-10-07T17:48:06.499Z,16.36
2018-10-07T17:50:35.296Z,16.26
2018-10-07T17:53:04.204Z,16.14
2018-10-07T17:55:32.872Z,16.05
2018-10-07T17:58:01.557Z,16.00
2018-10-07T18:00:30.249Z,15.91
2018-10-07T18:02:59.176Z,15.88
2018-10-07T18:05:27.798Z,15.76
2018-10-07T18:07:56.517Z,15.72
2018-10-07T18:10:25.093Z,15.64
2018-10-07T18:12:53.748Z,15.55
2018-10-07T18:15:22.464Z,15.51
2018-10-07T18:17:51.287Z,15.54
2018-10-07T18:20:20.035Z,15.52
2018-10-07T18:22:48.736Z,15.44
2018-10-07T18:25:17.860Z,15.40
2018-10-07T18:27:46.567Z,15.37
2018-10-07T18:30:15.291Z,15.28
2018-10-07T18:32:44.099Z,15.30
2018-10-07T18:35:12.732Z,15.31
2018-10-07T18:37:41.556Z,15.33
2018-10-07T18:40:10.335Z,15.32
2018-10-07T18:42:39.002Z,15.35
2018-10-07T18:45:07.648Z,15.25
2018-10-07T18:47:36.433Z,15.31
2018-10-07T18:50:05.129Z,15.32
2018-10-07T18:52:33.921Z,15.30
2018-10-07T18:55:02.753Z,15.29
2018-10-07T18:57:31.556Z,15.28
2018-10-07T19:00:00.397Z,15.31
2018-10-07T19:02:29.235Z,15.30
2018-10-07T19:04:58.009Z,15.22
2018-10-07T19:07:26.841Z,15.24
2018-10-07T19:09:55.573Z,15.19
2018-10-07T19:12:24.483Z,15.12
2018-10-07T19:14:53.317Z,15.06
2018-10-07T19:17:22.142Z,15.08
2018-10-07T19:19:51.045Z,14.98
2018-10-07T19:22:19.745Z,15.04
2018-10-07T19:24:48.703Z,14.96
2018-10-07T19:27:17.428Z,14.90
2018-10-07T19:29:46.229Z,14.92
2018-10-07T19:32:15.075Z,14.85
2018-10-07T19:34:43.933Z,14.76
2018-10-07T19:37:12.981Z,14.63
2018-10-07T19:39:41.812Z,14.63
2018-10-07T19:42:10.518Z,14.47
2018-10-07T19:44:39.360Z,14.34
2018-10-07T19:47:08.117Z,14.22
2018-10-07T19:49:37.092Z,14.16
2018-10-07T19:52:05.789Z,14.14
2018-10-07T19:54:34.606Z,13.94
2018-10-07T19:57:03.468Z,14.00
2018-10-07T19:59:32.233Z,13.83
2018-10-07T20:02:00.942Z,14.00
2018-10-07T20:04:29.664Z,14.12
2018-10-07T20:06:58.504Z,14.22
2018-10-07T20:09:27.328Z,14.31
2018-10-07T20:11:56.189Z,14.37
2018-10-07T20:14:24.898Z,14.46
2018-10-07T20:16:53.655Z,14.41
2018-10-07T20:19:22.564Z,14.22
2018-10-07T20:21:51.413Z,14.21
2018-10-07T20:24:20.216Z,14.35
2018-10-07T20:26:48.820Z,14.36
2018-10-07T20:29:17.653Z,14.41
2018-10-07T20:31:46.485Z,14.44
2018-10-07T20:34:17.899Z,14.51
2018-10-07T20:36:46.877Z,14.47
2018-10-07T20:39:15.695Z,14.53
2018-10-07T20:41:44.429Z,14.51
2018-10-07T20:44:13.231Z,14.54
2018-10-07T20:46:42.085Z,14.52
2018-10-07T20:49:10.902Z,14.47
2018-10-07T20:51:40.848Z,14.43
2018-10-07T20:54:09.787Z,14.43
2018-10-07T20:56:38.626Z,14.48
2018-10-07T20:59:07.604Z,14.48
2018-10-07T21:01:36.572Z,14.53
2018-10-07T21:04:05.278Z,14.61
2018-10-07T21:06:34.223Z,14.67
2018-10-07T21:09:02.999Z,14.73
2018-10-07T21:11:31.836Z,14.79
2018-10-07T21:14:00.653Z,14.59
2018-10-07T21:16:29.499Z,14.48
2018-10-07T21:18:58.332Z,14.48
2018-10-07T21:21:27.181Z,14.40
2018-10-07T21:23:56.024Z,14.35
2018-10-07T21:26:24.869Z,14.36
2018-10-07T21:28:53.716Z,14.16
2018-10-07T21:31:22.561Z,14.05
2018-10-07T21:33:51.354Z,14.04
2018-10-07T21:36:21.166Z,13.95
2018-10-07T21:38:49.942Z,13.91
2018-10-07T21:41:18.880Z,13.90
2018-10-07T21:43:47.665Z,13.87
2018-10-07T21:46:16.476Z,13.88
2018-10-07T21:48:45.317Z,13.74
2018-10-07T21:51:14.241Z,13.61
2018-10-07T21:53:43.021Z,13.38
2018-10-07T21:56:12.946Z,13.38
2018-10-07T21:58:41.567Z,13.34
2018-10-07T22:01:10.265Z,13.30
2018-10-07T22:03:39.084Z,13.22
2018-10-07T22:06:07.861Z,13.14
2018-10-07T22:08:36.729Z,13.14
2018-10-07T22:11:05.406Z,13.08
2018-10-07T22:13:34.097Z,13.15
2018-10-07T22:16:02.839Z,13.17
2018-10-07T22:18:31.658Z,13.24
2018-10-07T22:21:00.448Z,13.23
2018-10-07T22:23:29.274Z,13.19
2018-10-07T22:25:57.951Z,13.20
2018-10-07T22:28:26.785Z,13.20
2018-10-07T22:30:55.540Z,13.11
2018-10-07T22:33:24.220Z,13.14
2018-10-07T22:35:52.773Z,13.14
2018-10-07T22:38:21.466Z,13.03
2018-10-07T22:40:50.266Z,12.94
2018-10-07T22:43:19.069Z,12.99
2018-10-07T22:45:47.653Z,13.00
2018-10-07T22:48:16.560Z,13.01
2018-10-07T22:50:45.352Z,13.04
2018-10-07T22:53:14.160Z,13.05
2018-10-07T22:55:42.829Z,13.06
2018-10-07T22:58:11.541Z,12.99
2018-10-07T23:00:40.222Z,12.97
2018-10-07T23:03:09.046Z,12.93
2018-10-07T23:05:37.868Z,12.92
2018-10-07T23:08:06.652Z,12.88
2018-10-07T23:10:35.702Z,12.82
2018-10-07T23:13:04.428Z,12.92
2018-10-07T23:15:33.284Z,12.89
2018-10-07T23:18:02.237Z,12.88
2018-10-07T23:20:31.055Z,12.93
2018-10-07T23:22:59.793Z,13.02
2018-10-07T23:25:28.573Z,12.98
2018-10-07T23:27:57.394Z,12.95
2018-10-07T23:30:25.939Z,13.05
2018-10-07T23:32:54.758Z,13.02
2018-10-07T23:35:24.517Z,13.02
2018-10-07T23:37:53.559Z,12.98
2018-10-07T23:40:22.337Z,12.97
2018-10-07T23:42:51.125Z,12.94
2018-10-07T23:45:20.005Z,12.98
2018-10-07T23:47:48.857Z,13.03
2018-10-07T23:50:17.835Z,13.02
2018-10-07T23:52:46.612Z,13.15
2018-10-07T23:55:15.313Z,13.19
2018-10-07T23:57:45.463Z,13.20
